Latest Weather Observations for Evans Head

IDN60801

Issued at 2:33 pm EDT Monday 22 December 2014 (issued every 30 minutes, with the page automatically refreshed every 10 minutes)

About weather observations | Map of weather stations | Latest weather observations for NSW | Other Formats
Station Details ID: 058212 Name: EVANS HEAD RAAF BOMBING RANGE AWS Lat: -29.18 Lon: 153.40 Height: 62.5 m
Data from the previous 72 hours. | See also: Recent months at Evans Head
Date/Time
EDT
Temp
°C
App
Temp
°C
Dew
Point
Rel
Hum
%
Delta-T
°C
Wind Press
QNH
hPa
Press
MSL
hPa
Rain
since 9 am
mm
Dir
 
Spd
km/h
Gust
km/h
Spd
kts
Gust
kts
22/02:30pm 26.1 24.5 16.4 55 6.0 ESE 20 28 11 15 1017.9 1017.6 0.0
22/02:00pm 25.8 24.2 16.4 56 5.8 ESE 20 28 11 15 1018.0 1017.7 0.0
22/01:30pm 26.3 24.6 16.3 54 6.2 ESE 20 28 11 15 1018.4 1018.1 0.0
22/01:00pm 26.2 24.8 17.0 57 5.7 ESE 20 28 11 15 1018.7 1018.4 0.0
22/12:30pm 25.9 24.7 17.0 58 5.5 ESE 19 28 10 15 1019.1 1018.8 0.0
22/12:00pm 27.1 26.2 17.8 56 5.9 ESE 19 24 10 13 1019.0 1018.7 0.0
22/11:30am 27.3 28.0 18.9 60 5.4 SE 13 22 7 12 1019.1 1018.8 0.0
22/11:00am 25.4 25.4 17.1 60 5.2 ESE 13 20 7 11 1019.2 1018.9 0.0
22/10:30am 26.5 27.3 18.1 60 5.3 SE 11 19 6 10 1019.1 1018.8 0.0
22/10:00am 25.0 24.7 16.4 59 5.3 SSE 13 17 7 9 1019.1 1018.8 0.0
22/09:30am 25.1 25.5 18.1 65 4.4 SSE 13 19 7 10 1018.9 1018.6 0.0
22/09:00am 24.9 26.0 17.9 65 4.4 SE 9 15 5 8 1018.8 1018.5 0.0
22/08:30am 24.9 26.5 17.9 65 4.4 SE 6 9 3 5 1018.6 1018.3 0.0
22/08:00am 23.6 25.8 18.3 72 3.3 S 4 11 2 6 1018.5 1018.2 0.0
22/07:30am 22.0 23.8 18.4 80 2.3 SSE 6 9 3 5 1018.1 1017.8 0.0
22/07:00am 22.7 24.7 18.7 78 2.5 SW 6 11 3 6 1018.0 1017.7 0.0
22/06:30am 21.3 24.2 18.1 82 2.0 CALM 0 0 0 0 1017.5 1017.2 0.0
22/06:00am 20.3 21.3 17.7 85 1.6 W 9 11 5 6 1017.3 1017.0 0.0
22/05:30am 19.6 20.5 17.6 88 1.2 W 9 13 5 7 1017.0 1016.7 0.0
22/05:00am 19.7 20.1 17.3 86 1.5 W 11 13 6 7 1016.9 1016.6 0.0
22/04:30am 19.9 21.4 17.7 87 1.4 NW 6 7 3 4 1016.8 1016.5 0.0
22/04:00am 19.6 21.0 17.9 90 1.0 N 7 9 4 5 1016.6 1016.3 0.0
22/03:30am 19.5 20.8 17.1 86 1.5 NNW 6 7 3 4 1016.6 1016.3 0.0
22/03:00am 19.5 20.7 16.9 85 1.6 NNW 6 7 3 4 1016.6 1016.3 0.0
22/02:30am 20.2 21.2 16.8 81 2.1 NNE 7 11 4 6 1016.8 1016.5 0.0
22/02:00am 20.8 20.6 16.8 78 2.4 NE 13 19 7 10 1017.2 1016.9 0.0
22/01:30am 21.2 22.8 17.0 77 2.6 NNE 4 11 2 6 1018.5 1018.2 0.0
22/01:00am 21.4 23.5 17.2 77 2.6 N 2 6 1 3 1018.8 1018.5 0.0
22/12:30am 21.6 22.4 17.2 76 2.7 NNE 9 11 5 6 1018.9 1018.6 0.0
22/12:00am 21.7 22.4 17.1 75 2.8 NNE 9 13 5 7 1018.9 1018.6 0.0
 
Date/Time
EDT
Temp
°C
App
Temp
°C
Dew
Point
Rel
Hum
%
Delta-T
°C
Wind Press
QNH
hPa
Press
MSL
hPa
Rain
since 9 am
mm
Dir
 
Spd
km/h
Gust
km/h
Spd
kts
Gust
kts
21/11:30pm 21.7 22.4 17.1 75 2.8 NE 9 13 5 7 1018.9 1018.6 0.0
21/11:00pm 21.3 21.9 16.7 75 2.8 NE 9 13 5 7 1018.8 1018.5 0.0
21/10:30pm 21.2 21.7 16.6 75 2.8 NE 9 20 5 11 1019.0 1018.7 0.0
21/10:00pm 21.2 21.3 16.6 75 2.8 NE 11 17 6 9 1018.7 1018.4 0.0
21/09:30pm 21.6 20.9 16.3 72 3.2 ENE 15 24 8 13 1018.3 1018.0 0.0
21/09:00pm 21.8 20.6 16.1 70 3.4 ENE 17 28 9 15 1018.4 1018.1 0.0
21/08:30pm 21.8 20.6 16.1 70 3.4 ENE 17 24 9 13 1018.2 1017.9 0.0
21/08:00pm 21.9 20.7 16.2 70 3.4 ENE 17 26 9 14 1018.0 1017.7 0.0
21/07:30pm 22.1 20.5 16.1 69 3.6 E 19 30 10 16 1017.4 1017.1 0.0
21/07:00pm 22.6 21.1 16.4 68 3.8 E 19 30 10 16 1017.2 1016.9 0.0
21/06:30pm 23.2 22.0 17.0 68 3.8 E 19 30 10 16 1016.9 1016.6 0.0
21/06:00pm 23.4 21.9 16.7 66 4.1 ENE 20 33 11 18 1016.6 1016.3 0.0
21/05:30pm 23.6 21.8 16.9 66 4.1 E 22 32 12 17 1016.5 1016.2 0.0
21/05:00pm 24.9 23.7 17.4 63 4.7 E 20 30 11 16 1016.6 1016.3 0.0
21/04:30pm 25.1 23.4 17.3 62 4.9 E 22 35 12 19 1016.6 1016.3 0.0
21/04:00pm 25.4 23.7 17.1 60 5.2 E 22 33 12 18 1016.6 1016.3 0.0
21/03:30pm 25.9 24.7 17.5 59 5.3 E 20 32 11 17 1016.8 1016.5 0.0
21/03:00pm 26.1 24.7 18.0 61 5.1 E 22 32 12 17 1016.8 1016.5 0.0
21/02:30pm 25.9 24.2 17.3 59 5.4 E 22 33 12 18 1017.0 1016.7 0.0
21/02:00pm 25.7 23.8 16.8 58 5.5 E 22 32 12 17 1017.5 1017.2 0.0
21/01:30pm 26.2 24.7 17.6 59 5.4 E 22 32 12 17 1017.7 1017.4 0.0
21/01:00pm 26.5 25.0 17.8 58 5.5 E 22 33 12 18 1017.9 1017.6 0.0
21/12:30pm 26.2 25.5 18.6 63 4.9 E 20 28 11 15 1018.2 1017.9 0.0
21/12:00pm 25.9 25.1 18.1 62 4.9 ENE 19 28 10 15 1018.7 1018.4 0.0
21/11:30am 25.9 25.0 17.8 61 5.1 ENE 19 28 10 15 1018.8 1018.5 0.0
21/11:00am 25.9 26.9 18.6 64 4.6 NE 11 19 6 10 1018.9 1018.6 0.0
21/10:30am 25.2 25.2 18.2 65 4.4 ENE 15 22 8 12 1018.9 1018.6 0.0
21/10:00am 24.6 25.2 17.6 65 4.4 NE 11 17 6 9 1018.9 1018.6 0.0
21/09:30am 25.3 26.0 18.0 64 4.6 NE 11 19 6 10 1018.8 1018.5 0.0
21/09:00am 24.8 26.4 18.3 67 4.1 NNE 7 15 4 8 1018.8 1018.5 0.0
21/08:30am 23.5 24.6 17.9 71 3.5 NNE 9 17 5 9 1018.8 1018.5 0.0
21/08:00am 23.0 24.6 18.3 75 3.0 NE 7 13 4 7 1018.4 1018.1 0.0
21/07:30am 21.8 23.0 19.0 84 1.8 NNE 11 15 6 8 1017.9 1017.6 0.0
21/07:00am 20.7 21.8 18.1 85 1.6 NNE 9 13 5 7 1017.7 1017.4 0.0
21/06:30am 20.9 22.2 17.5 81 2.1 NNE 7 11 4 6 1017.6 1017.3 0.0
21/06:00am 20.9 22.2 17.5 81 2.1 NE 7 13 4 7 1017.2 1016.9 0.0
21/05:30am 20.4 21.2 17.2 82 2.0 NNE 9 11 5 6 1016.9 1016.6 0.0
21/05:00am 20.3 20.9 16.9 81 2.1 NNE 9 13 5 7 1016.7 1016.4 0.0
21/04:30am 20.6 21.1 16.6 78 2.4 NE 9 15 5 8 1016.7 1016.4 0.0
21/04:00am 20.7 21.3 16.7 78 2.4 NE 9 13 5 7 1016.7 1016.4 0.0
21/03:30am 20.8 21.2 16.4 76 2.7 NE 9 13 5 7 1016.5 1016.2 0.0
21/03:00am 21.5 21.3 16.7 74 2.9 ENE 13 19 7 10 1016.5 1016.2 0.0
21/02:30am 21.8 21.7 17.0 74 2.9 ENE 13 20 7 11 1017.0 1016.7 0.0
21/02:00am 21.8 21.6 16.7 73 3.1 ENE 13 20 7 11 1017.2 1016.9 0.0
21/01:30am 21.9 21.7 16.6 72 3.2 ENE 13 20 7 11 1017.5 1017.2 0.0
21/01:00am 22.1 21.9 16.6 71 3.3 ENE 13 20 7 11 1017.8 1017.5 0.0
21/12:30am 22.1 22.0 17.0 73 3.1 ENE 13 22 7 12 1018.0 1017.7 0.0
21/12:00am 22.2 21.7 16.9 72 3.2 ENE 15 24 8 13 1018.2 1017.9 0.0
 
Date/Time
EDT
Temp
°C
App
Temp
°C
Dew
Point
Rel
Hum
%
Delta-T
°C
Wind Press
QNH
hPa
Press
MSL
hPa
Rain
since 9 am
mm
Dir
 
Spd
km/h
Gust
km/h
Spd
kts
Gust
kts
20/11:30pm 21.9 21.9 17.3 75 2.8 ENE 13 20 7 11 1018.3 1018.0 0.0
20/11:00pm 21.8 21.4 17.2 75 2.8 ENE 15 20 8 11 1018.3 1018.0 0.0
20/10:30pm 22.1 21.3 17.0 73 3.1 ENE 17 22 9 12 1018.2 1017.9 0.0
20/10:00pm 22.1 21.6 17.0 73 3.1 ENE 15 24 8 13 1018.0 1017.7 0.0
20/09:30pm 22.0 21.6 17.2 74 3.0 ENE 15 20 8 11 1017.5 1017.2 0.0
20/09:00pm 22.2 20.9 16.7 71 3.4 ENE 19 28 10 15 1017.0 1016.7 0.0
20/08:30pm 22.0 20.7 16.9 73 3.1 ENE 19 28 10 15 1016.9 1016.6 0.0
20/08:00pm 22.1 20.9 17.0 73 3.1 ENE 19 26 10 14 1016.4 1016.1 0.0
20/07:30pm 22.2 21.3 16.9 72 3.2 ENE 17 24 9 13 1016.1 1015.8 0.0
20/07:00pm 22.5 20.9 16.5 69 3.7 ENE 20 28 11 15 1015.8 1015.5 0.0
20/06:30pm 22.9 22.0 16.9 69 3.7 E 17 24 9 13 1015.6 1015.3 0.0
20/06:00pm 23.0 22.1 16.8 68 3.8 E 17 26 9 14 1015.1 1014.8 0.0
20/05:30pm 23.3 21.8 16.8 67 4.0 E 20 28 11 15 1014.8 1014.5 0.0
20/05:00pm 25.3 24.0 17.2 61 5.0 E 20 28 11 15 1014.6 1014.3 0.0
20/04:30pm 25.2 23.8 16.6 59 5.3 E 19 28 10 15 1014.6 1014.3 0.0
20/04:00pm 25.3 23.9 17.0 60 5.2 E 20 30 11 16 1014.9 1014.6 0.0
20/03:30pm 26.6 25.8 17.9 59 5.5 ESE 19 28 10 15 1015.3 1015.0 0.0
20/03:00pm 26.4 25.3 17.7 58 5.5 ESE 20 26 11 14 1015.6 1015.3 0.0
20/02:30pm 26.1 25.0 17.2 58 5.6 ESE 19 26 10 14 1015.8 1015.5 0.0
20/02:00pm 26.8 25.8 17.6 57 5.8 E 19 28 10 15 1016.0 1015.7 0.0
20/01:30pm 26.8 25.9 17.8 57 5.7 ESE 19 26 10 14 1016.2 1015.9 0.0
20/01:00pm 26.5 25.3 17.6 58 5.6 ESE 20 28 11 15 1016.5 1016.2 0.0
20/12:30pm 26.6 25.9 18.2 60 5.3 ESE 19 26 10 14 1016.8 1016.5 0.0
20/12:00pm 25.7 24.5 17.1 59 5.4 ESE 19 24 10 13 1017.0 1016.7 0.0
20/11:30am 24.8 24.8 19.0 70 3.7 E 17 22 9 12 1017.1 1016.8 0.0
20/11:00am 23.0 23.2 17.7 72 3.3 ESE 13 20 7 11 1017.2 1016.9 0.0
20/10:30am 23.4 22.9 17.8 71 3.5 ESE 17 22 9 12 1017.1 1016.8 0.0
20/10:00am 22.8 22.7 17.9 74 3.1 SE 15 19 8 10 1017.1 1016.8 0.0
20/09:30am 23.8 23.8 18.2 71 3.5 SE 15 20 8 11 1017.0 1016.7 0.0
20/09:00am 24.1 23.6 17.8 68 3.9 ESE 17 20 9 11 1016.8 1016.5 0.0
20/08:30am 23.5 23.7 18.6 74 3.1 ESE 15 17 8 9 1016.7 1016.4 0.0
20/08:00am 22.9 22.7 18.4 76 2.8 ESE 17 20 9 11 1016.4 1016.1 0.0
20/07:30am 22.6 23.7 18.8 79 2.4 SE 11 17 6 9 1016.1 1015.8 0.0
20/07:00am 22.0 22.5 18.4 80 2.3 SE 13 19 7 10 1015.7 1015.4 0.0
20/06:30am 21.3 22.6 18.5 84 1.8 ESE 9 15 5 8 1015.4 1015.1 0.0
20/06:00am 21.5 21.5 18.1 81 2.1 ESE 15 19 8 10 1015.2 1014.9 0.0
20/05:30am 21.9 22.0 18.3 80 2.3 SE 15 24 8 13 1014.9 1014.6 0.0
20/05:00am 22.0 22.4 18.2 79 2.4 SE 13 19 7 10 1014.6 1014.3 0.0
20/04:30am 21.8 22.1 18.0 79 2.4 SSE 13 20 7 11 1014.5 1014.2 0.0
20/04:00am 21.7 22.1 18.1 80 2.2 SSE 13 20 7 11 1014.4 1014.1 0.0
20/03:30am 21.7 21.6 17.9 79 2.4 SE 15 20 8 11 1014.3 1014.0 0.0
20/03:00am 21.5 21.4 17.9 80 2.2 SE 15 20 8 11 1014.5 1014.2 0.0
20/02:30am 21.5 21.0 17.9 80 2.2 SSE 17 24 9 13 1014.7 1014.4 0.0
20/02:00am 21.8 21.1 18.2 80 2.2 SSE 19 26 10 14 1014.7 1014.4 0.0
20/01:30am 22.0 21.7 18.2 79 2.4 SSE 17 20 9 11 1015.0 1014.7 0.0
20/01:00am 22.3 22.5 18.5 79 2.4 SSE 15 20 8 11 1015.3 1015.0 0.0
20/12:30am 22.4 22.0 18.0 76 2.7 SSE 17 22 9 12 1015.6 1015.3 0.0
20/12:00am 22.1 22.5 18.9 82 2.0 SSE 15 20 8 11 1015.6 1015.3 0.0
 
Date/Time
EDT
Temp
°C
App
Temp
°C
Dew
Point
Rel
Hum
%
Delta-T
°C
Wind Press
QNH
hPa
Press
MSL
hPa
Rain
since 9 am
mm
Dir
 
Spd
km/h
Gust
km/h
Spd
kts
Gust
kts
19/11:30pm 21.9 21.7 18.5 81 2.1 SSE 17 24 9 13 1015.6 1015.3 0.0
19/11:00pm 22.1 21.8 19.1 83 1.9 SSE 19 24 10 13 1015.7 1015.4 0.0
19/10:30pm 22.3 22.1 19.3 83 1.9 SSE 19 24 10 13 1015.5 1015.2 0.0
19/10:00pm 22.0 21.5 19.0 83 1.9 SSE 20 28 11 15 1015.3 1015.0 0.0
19/09:30pm 22.2 21.3 19.0 82 2.0 SSE 22 32 12 17 1014.7 1014.4 0.0
19/09:00pm 22.3 21.7 18.9 81 2.2 SSE 20 28 11 15 1014.4 1014.1 0.0
19/08:30pm 22.5 22.2 19.5 83 1.9 SSE 20 28 11 15 1014.2 1013.9 0.0
19/08:00pm 22.7 22.3 19.3 81 2.2 SSE 20 32 11 17 1013.6 1013.3 0.0
19/07:30pm 22.9 21.7 19.3 80 2.3 SSE 24 32 13 17 1013.0 1012.8 0.0
19/07:00pm 23.1 21.9 19.3 79 2.4 SSE 24 32 13 17 1012.5 1012.3 0.0
19/06:30pm 23.6 22.5 19.5 78 2.6 SSE 24 35 13 19 1011.8 1011.6 0.0
19/06:00pm 24.9 24.0 19.9 74 3.2 S 24 35 13 19 1011.2 1011.0 0.0
19/05:30pm 25.3 23.7 20.1 73 3.4 SSE 28 41 15 22 1010.6 1010.3 0.0
19/05:00pm 26.2 24.9 20.7 71 3.6 SSE 28 37 15 20 1010.2 1009.9 0.0
19/04:30pm 24.9 22.8 19.7 73 3.4 SSE 30 41 16 22 1010.0 1009.7 0.0
19/04:00pm 27.2 26.0 20.0 64 4.7 SSE 26 37 14 20 1009.9 1009.6 0.0
19/03:30pm 26.9 23.7 19.5 64 4.8 SSE 35 44 19 24 1009.7 1009.4 0.0
19/03:00pm 28.6 28.0 19.8 59 5.8 SE 22 32 12 17 1009.6 1009.3 0.0

Other Formats:

Comma delimited format used in spreadsheet applications
http://www.bom.gov.au/fwo/IDN60801/IDN60801.94598.axf

JavaScript Object Notation format (JSON) in row-major order
http://www.bom.gov.au/fwo/IDN60801/IDN60801.94598.json